DLH192 EDDL-EDDN
Flight info
| Callsign | DLH192 |
|---|---|
| Flight time | N/A |
| Altitude | 23000 |
| Route | NUDGO6T NUDGO Z858 ESADU P12 WRB Z190 VELIS T194 DODAS DODAS1V |
| Aircraft | A320/M-SDE3FGHIRWY/LB1 |
Departure
| Time | 2026-05-04 12:23 |
|---|---|
| Airport | Düsseldorf Airport (EDDL) |
Arrival
| Time | N/A |
|---|---|
| Airport | Nuremberg Airport (EDDN) |
| Time | Latitude | Longitude | Altitude | Speed | Heading |
|---|---|---|---|---|---|
| 2026-05-04 11:53 | 51.28037 | 6.76366 | 126 ft | 0 kts | 197° |
| 2026-05-04 11:55 | 51.28043 | 6.76369 | 125 ft | 0 kts | 197° |
| 2026-05-04 12:15 | 51.28064 | 6.76382 | 123 ft | 4 kts | 217° |
| 2026-05-04 12:15 | 51.28078 | 6.76411 | 123 ft | 4 kts | 267° |
| 2026-05-04 12:15 | 51.28072 | 6.76442 | 123 ft | 2 kts | 326° |
| 2026-05-04 12:16 | 51.28070 | 6.76443 | 123 ft | 0 kts | 327° |
| 2026-05-04 12:18 | 51.28071 | 6.76442 | 123 ft | 2 kts | 327° |
| 2026-05-04 12:18 | 51.28117 | 6.76419 | 127 ft | 9 kts | 0° |
| 2026-05-04 12:18 | 51.28172 | 6.76429 | 128 ft | 8 kts | 7° |
| 2026-05-04 12:18 | 51.28249 | 6.76463 | 123 ft | 15 kts | 41° |
| 2026-05-04 12:19 | 51.28329 | 6.76628 | 122 ft | 22 kts | 52° |
| 2026-05-04 12:19 | 51.28427 | 6.76680 | 124 ft | 14 kts | 4° |
| 2026-05-04 12:19 | 51.28490 | 6.76775 | 124 ft | 12 kts | 53° |
| 2026-05-04 12:19 | 51.28532 | 6.76865 | 124 ft | 9 kts | 53° |
| 2026-05-04 12:20 | 51.28570 | 6.76945 | 127 ft | 12 kts | 52° |
| 2026-05-04 12:20 | 51.28634 | 6.77080 | 129 ft | 19 kts | 53° |
| 2026-05-04 12:20 | 51.28730 | 6.77282 | 126 ft | 27 kts | 52° |
| 2026-05-04 12:20 | 51.28849 | 6.77531 | 124 ft | 29 kts | 52° |
| 2026-05-04 12:21 | 51.28974 | 6.77794 | 129 ft | 30 kts | 52° |
| 2026-05-04 12:21 | 51.29104 | 6.78066 | 132 ft | 31 kts | 53° |
| 2026-05-04 12:21 | 51.29185 | 6.78207 | 136 ft | 12 kts | 25° |
| 2026-05-04 12:21 | 51.29254 | 6.78197 | 137 ft | 9 kts | 335° |
| 2026-05-04 12:22 | 51.29291 | 6.78151 | 139 ft | 5 kts | 321° |
| 2026-05-04 12:22 | 51.29329 | 6.78087 | 140 ft | 10 kts | 282° |
| 2026-05-04 12:22 | 51.29307 | 6.78024 | 138 ft | 0 kts | 232° |
| 2026-05-04 12:22 | 51.29299 | 6.78007 | 138 ft | 6 kts | 232° |
| 2026-05-04 12:23 | 51.29133 | 6.77658 | 126 ft | 78 kts | 233° |
| 2026-05-04 12:23 | 51.28672 | 6.76689 | 127 ft | 138 kts | 233° |
| 2026-05-04 12:23 | 51.28011 | 6.75304 | 351 ft | 167 kts | 232° |
| 2026-05-04 12:23 | 51.27239 | 6.73799 | 816 ft | 183 kts | 230° |
| 2026-05-04 12:24 | 51.26368 | 6.72210 | 1368 ft | 196 kts | 228° |
| 2026-05-04 12:24 | 51.25443 | 6.70500 | 1850 ft | 210 kts | 230° |
| 2026-05-04 12:24 | 51.24489 | 6.68630 | 2391 ft | 223 kts | 231° |
| 2026-05-04 12:24 | 51.23515 | 6.66640 | 3096 ft | 232 kts | 232° |
| 2026-05-04 12:25 | 51.22542 | 6.64535 | 3870 ft | 238 kts | 232° |
| 2026-05-04 12:25 | 51.21371 | 6.62679 | 4753 ft | 239 kts | 209° |
| 2026-05-04 12:25 | 51.19755 | 6.62110 | 5426 ft | 251 kts | 178° |
| 2026-05-04 12:25 | 51.17980 | 6.62562 | 6042 ft | 265 kts | 167° |
| 2026-05-04 12:26 | 51.16188 | 6.63359 | 6840 ft | 271 kts | 158° |
| 2026-05-04 12:26 | 51.14649 | 6.65122 | 7682 ft | 279 kts | 133° |
| 2026-05-04 12:26 | 51.13575 | 6.67705 | 8581 ft | 284 kts | 115° |
| 2026-05-04 12:26 | 51.13141 | 6.70786 | 9450 ft | 291 kts | 92° |
| 2026-05-04 12:27 | 51.13193 | 6.74033 | 10233 ft | 297 kts | 89° |
| 2026-05-04 12:27 | 51.13300 | 6.77398 | 10515 ft | 320 kts | 88° |
| 2026-05-04 12:27 | 51.13433 | 6.80815 | 10722 ft | 342 kts | 88° |
| 2026-05-04 12:29 | 51.13442 | 6.81057 | 10734 ft | 343 kts | 89° |
| 2026-05-04 12:29 | 51.13584 | 6.84975 | 10973 ft | 363 kts | 88° |
| 2026-05-04 12:29 | 51.13661 | 6.86948 | 11222 ft | 368 kts | 88° |
| 2026-05-04 12:31 | 51.13818 | 6.90998 | 11810 ft | 374 kts | 88° |
| 2026-05-04 12:31 | 51.13987 | 6.95156 | 12491 ft | 378 kts | 88° |
| 2026-05-04 12:31 | 51.14158 | 6.99415 | 13197 ft | 382 kts | 88° |
| 2026-05-04 12:32 | 51.14321 | 7.03655 | 13874 ft | 385 kts | 88° |
| 2026-05-04 12:32 | 51.14486 | 7.08142 | 14376 ft | 383 kts | 89° |
| 2026-05-04 12:33 | 51.14554 | 7.10028 | 14508 ft | 370 kts | 89° |
| 2026-05-04 12:34 | 51.14696 | 7.14067 | 14590 ft | 368 kts | 89° |
| 2026-05-04 12:34 | 51.14835 | 7.18243 | 14748 ft | 386 kts | 89° |
| 2026-05-04 12:34 | 51.14975 | 7.22496 | 14943 ft | 382 kts | 89° |
| 2026-05-04 12:34 | 51.15118 | 7.26798 | 15283 ft | 394 kts | 89° |
| 2026-05-04 12:35 | 51.15263 | 7.31251 | 15889 ft | 400 kts | 89° |
| 2026-05-04 12:35 | 51.15404 | 7.35639 | 16568 ft | 405 kts | 89° |
| 2026-05-04 12:35 | 51.15553 | 7.40155 | 17294 ft | 410 kts | 89° |
| 2026-05-04 12:35 | 51.15938 | 7.44694 | 17815 ft | 418 kts | 79° |
| 2026-05-04 12:36 | 51.16814 | 7.49143 | 18391 ft | 425 kts | 70° |
| 2026-05-04 12:36 | 51.16918 | 7.49562 | 18431 ft | 425 kts | 70° |
| 2026-05-04 12:37 | 51.17034 | 7.50019 | 18492 ft | 425 kts | 69° |
| 2026-05-04 12:38 | 51.18183 | 7.54398 | 19031 ft | 430 kts | 70° |
| 2026-05-04 12:38 | 51.18922 | 7.57330 | 19328 ft | 433 kts | 70° |
| 2026-05-04 12:38 | 51.19311 | 7.58910 | 19442 ft | 434 kts | 71° |
| 2026-05-04 12:39 | 51.20136 | 7.62206 | 19748 ft | 436 kts | 70° |
| 2026-05-04 12:39 | 51.20398 | 7.63275 | 19847 ft | 437 kts | 71° |